createdAt,value
2019-04-04T00:01:28.973Z,8.83
2019-04-04T00:05:33.955Z,9.40
2019-04-04T00:09:38.953Z,16.10
2019-04-04T00:13:43.824Z,7.80
2019-04-04T00:17:48.721Z,9.57
2019-04-04T00:21:53.621Z,13.90
2019-04-04T00:25:58.477Z,10.67
2019-04-04T00:30:03.520Z,12.90
2019-04-04T00:34:09.614Z,11.47
2019-04-04T00:38:14.521Z,10.80
2019-04-04T00:42:19.345Z,17.10
2019-04-04T00:46:24.239Z,9.10
2019-04-04T00:50:29.090Z,8.67
2019-04-04T00:54:34.033Z,12.20
2019-04-04T00:58:38.855Z,14.47
2019-04-04T01:02:43.870Z,14.00
2019-04-04T01:06:48.670Z,12.67
2019-04-04T01:10:53.610Z,13.20
2019-04-04T01:15:00.130Z,10.30
2019-04-04T01:19:05.110Z,11.87
2019-04-04T01:23:10.127Z,8.90
2019-04-04T01:27:14.992Z,10.70
2019-04-04T01:31:20.093Z,8.07
2019-04-04T01:35:25.262Z,10.70
2019-04-04T01:39:31.209Z,16.43
2019-04-04T01:43:38.050Z,10.37
2019-04-04T01:47:43.525Z,12.60
2019-04-04T01:51:48.417Z,14.33
2019-04-04T01:55:54.430Z,11.40
2019-04-04T01:59:59.322Z,15.10
2019-04-04T02:04:04.434Z,9.00
2019-04-04T02:08:09.379Z,14.10
2019-04-04T02:12:14.408Z,11.27
2019-04-04T02:16:19.401Z,11.23
2019-04-04T02:20:25.024Z,11.37
2019-04-04T02:24:31.795Z,11.77
2019-04-04T02:28:37.952Z,12.33
2019-04-04T02:32:44.239Z,13.37
2019-04-04T02:36:49.923Z,18.80
2019-04-04T02:40:55.138Z,11.60
2019-04-04T02:45:00.039Z,12.47
2019-04-04T02:49:05.013Z,12.10
2019-04-04T02:53:09.902Z,15.43
2019-04-04T02:57:14.953Z,14.53
2019-04-04T03:01:19.955Z,14.83
2019-04-04T03:05:24.826Z,13.00
2019-04-04T03:09:29.927Z,19.00
2019-04-04T03:13:35.021Z,12.77
2019-04-04T03:17:39.938Z,12.17
2019-04-04T03:21:44.827Z,13.70
2019-04-04T03:25:49.716Z,13.77
2019-04-04T03:29:54.697Z,13.40
2019-04-04T03:34:08.975Z,9.70
2019-04-04T03:38:06.467Z,14.07
2019-04-04T03:42:11.553Z,12.20
2019-04-04T03:46:16.422Z,14.67
2019-04-04T03:50:21.370Z,13.37
2019-04-04T03:54:28.238Z,10.10
2019-04-04T03:58:33.125Z,13.00
2019-04-04T04:02:39.348Z,11.57
2019-04-04T04:06:44.230Z,12.77
2019-04-04T04:10:49.110Z,13.88
2019-04-04T04:14:55.074Z,16.30
2019-04-04T04:19:00.301Z,13.57
2019-04-04T04:23:05.336Z,17.47
2019-04-04T04:27:14.419Z,13.50
2019-04-04T04:31:16.799Z,18.40
2019-04-04T04:35:21.704Z,12.50
2019-04-04T04:39:27.008Z,14.33
2019-04-04T04:43:33.588Z,12.13
2019-04-04T04:47:38.716Z,13.27
2019-04-04T04:51:44.313Z,10.50
2019-04-04T04:55:49.294Z,20.57
2019-04-04T04:59:54.651Z,13.80
2019-04-04T05:04:02.332Z,13.93
2019-04-04T05:08:06.175Z,14.70
2019-04-04T05:12:11.145Z,13.80
2019-04-04T05:16:16.061Z,17.30
2019-04-04T05:20:21.082Z,17.80
2019-04-04T05:24:26.049Z,12.40
2019-04-04T05:28:31.162Z,17.87
2019-04-04T05:32:36.751Z,16.63
2019-04-04T05:36:41.772Z,15.30
2019-04-04T05:40:46.783Z,16.23
2019-04-04T05:44:51.666Z,20.23
2019-04-04T05:48:59.377Z,23.60
2019-04-04T05:53:06.486Z,19.93
2019-04-04T05:57:11.474Z,16.87
2019-04-04T06:01:17.083Z,18.90
2019-04-04T06:05:22.078Z,17.50
2019-04-04T06:09:27.477Z,21.50
2019-04-04T06:13:32.338Z,12.50
2019-04-04T06:17:39.162Z,16.87
2019-04-04T06:21:44.135Z,12.63
2019-04-04T06:25:49.034Z,13.40
2019-04-04T06:29:54.114Z,16.67
2019-04-04T06:33:59.315Z,15.60
2019-04-04T06:38:04.363Z,14.40
2019-04-04T06:42:11.320Z,16.27
2019-04-04T06:46:18.371Z,15.17
2019-04-04T06:50:22.375Z,12.07
2019-04-04T06:54:27.251Z,12.00
2019-04-04T06:58:32.281Z,8.90
2019-04-04T07:02:37.283Z,10.67
2019-04-04T07:06:42.503Z,11.73
2019-04-04T07:10:57.340Z,12.20
2019-04-04T07:14:53.966Z,10.03
2019-04-04T07:18:58.859Z,10.07
2019-04-04T07:23:03.761Z,11.43
2019-04-04T07:27:08.648Z,9.53
2019-04-04T07:31:15.886Z,11.40
2019-04-04T07:35:21.373Z,8.47
2019-04-04T07:39:26.253Z,13.70
2019-04-04T07:43:31.458Z,10.03
2019-04-04T07:47:36.345Z,11.17
2019-04-04T07:51:41.506Z,10.00
2019-04-04T07:55:46.449Z,13.33
2019-04-04T07:59:51.382Z,14.50
2019-04-04T08:03:56.410Z,10.67
2019-04-04T08:08:01.690Z,10.73
2019-04-04T08:12:06.729Z,9.30
2019-04-04T08:16:13.507Z,9.60
2019-04-04T08:20:18.513Z,10.53
2019-04-04T08:24:23.418Z,9.67
2019-04-04T08:28:28.363Z,10.90
2019-04-04T08:32:33.276Z,10.33
2019-04-04T08:36:38.174Z,10.63
2019-04-04T08:40:45.922Z,12.07
2019-04-04T08:44:49.668Z,11.20
2019-04-04T08:48:54.532Z,11.23
2019-04-04T08:52:59.505Z,8.83
2019-04-04T08:57:04.404Z,10.20
2019-04-04T09:01:09.283Z,9.37
2019-04-04T09:05:14.828Z,9.37
2019-04-04T09:09:19.760Z,9.03
2019-04-04T09:13:24.742Z,8.30
2019-04-04T09:17:29.841Z,8.33
2019-04-04T09:21:34.724Z,9.53
2019-04-04T09:25:40.956Z,10.00
2019-04-04T09:29:46.297Z,8.10
2019-04-04T09:33:51.359Z,8.30
2019-04-04T09:37:56.258Z,9.97
2019-04-04T09:42:01.194Z,10.60
2019-04-04T09:46:06.239Z,7.73
2019-04-04T09:50:11.815Z,8.47
2019-04-04T09:54:19.210Z,8.50
2019-04-04T09:58:23.362Z,8.30
2019-04-04T10:02:28.462Z,7.57
2019-04-04T10:06:33.413Z,9.33
2019-04-04T10:10:38.325Z,6.23
2019-04-04T10:14:43.482Z,7.60
2019-04-04T10:18:48.400Z,7.23
2019-04-04T10:22:53.856Z,6.00
2019-04-04T10:26:58.800Z,6.83
2019-04-04T10:31:03.785Z,5.87
2019-04-04T10:35:08.920Z,5.60
2019-04-04T10:39:14.113Z,9.30
2019-04-04T10:43:19.097Z,5.60
2019-04-04T10:47:24.008Z,5.60
2019-04-04T10:51:28.889Z,6.20
2019-04-04T10:55:33.879Z,6.70
2019-04-04T10:59:39.149Z,5.33
2019-04-04T11:03:44.118Z,6.00
2019-04-04T11:07:49.388Z,6.70
2019-04-04T11:11:54.278Z,6.23
2019-04-04T11:15:59.499Z,5.97
2019-04-04T11:20:05.010Z,8.50
2019-04-04T11:24:09.870Z,6.70
2019-04-04T11:28:14.805Z,7.00
2019-04-04T11:32:19.922Z,9.93
2019-04-04T11:36:25.087Z,10.37
2019-04-04T11:40:30.253Z,7.80
2019-04-04T11:44:36.081Z,8.80
2019-04-04T11:48:40.996Z,8.07
2019-04-04T11:52:46.322Z,15.00
2019-04-04T11:56:51.224Z,8.50
2019-04-04T12:00:56.870Z,7.90
2019-04-04T12:05:02.861Z,9.77
2019-04-04T12:09:09.354Z,5.60
2019-04-04T12:13:15.839Z,6.30
2019-04-04T12:17:21.131Z,7.50
2019-04-04T12:21:26.210Z,10.93
2019-04-04T12:25:31.089Z,5.77
2019-04-04T12:29:36.866Z,7.70
2019-04-04T12:33:42.138Z,5.40
2019-04-04T12:37:47.857Z,7.67
2019-04-04T12:41:53.557Z,6.77
2019-04-04T12:45:58.691Z,13.00
2019-04-04T12:50:04.137Z,6.67
2019-04-04T12:54:09.641Z,7.33
2019-04-04T12:58:20.847Z,7.03
2019-04-04T13:02:26.671Z,7.03
2019-04-04T13:06:36.474Z,10.20
2019-04-04T13:10:52.986Z,8.20
2019-04-04T13:15:05.053Z,6.70
2019-04-04T13:19:14.062Z,6.87
2019-04-04T13:23:19.904Z,7.30
2019-04-04T13:27:25.347Z,9.50
2019-04-04T13:31:39.580Z,8.17
2019-04-04T13:35:51.337Z,9.28
2019-04-04T13:39:57.248Z,7.00
2019-04-04T13:44:04.454Z,7.87
2019-04-04T13:48:12.678Z,6.50
2019-04-04T13:52:17.864Z,7.30
2019-04-04T13:56:24.238Z,10.10
2019-04-04T14:00:29.471Z,8.83
2019-04-04T14:04:34.661Z,8.17
2019-04-04T14:08:40.822Z,7.00
2019-04-04T14:12:46.572Z,6.30
2019-04-04T14:16:53.619Z,8.00
2019-04-04T14:21:03.926Z,6.30
2019-04-04T14:25:06.941Z,10.17
2019-04-04T14:29:12.094Z,7.43
2019-04-04T14:33:17.424Z,5.03
2019-04-04T14:37:22.563Z,6.13
2019-04-04T14:41:28.154Z,5.60
2019-04-04T14:45:33.354Z,4.63
2019-04-04T14:49:38.266Z,5.73
2019-04-04T14:53:43.172Z,5.23
2019-04-04T14:57:48.077Z,5.50
2019-04-04T15:01:53.007Z,7.73
2019-04-04T15:05:57.891Z,4.23
2019-04-04T15:10:03.444Z,5.23
2019-04-04T15:14:08.592Z,5.03
2019-04-04T15:18:13.926Z,9.00
2019-04-04T15:22:19.113Z,5.73
2019-04-04T15:26:24.649Z,5.77
2019-04-04T15:30:29.901Z,4.47
2019-04-04T15:34:35.331Z,5.20
2019-04-04T15:38:41.010Z,5.20
2019-04-04T15:42:46.346Z,6.57
2019-04-04T15:46:51.352Z,7.87
2019-04-04T15:50:57.142Z,4.80
2019-04-04T15:55:02.287Z,7.63
2019-04-04T15:59:08.062Z,3.63
2019-04-04T16:03:13.538Z,5.20
2019-04-04T16:07:19.589Z,4.77
2019-04-04T16:11:26.528Z,4.40
2019-04-04T16:15:32.303Z,4.43
2019-04-04T16:19:38.453Z,5.60
2019-04-04T16:23:44.096Z,6.80
2019-04-04T16:27:49.910Z,4.27
2019-04-04T16:31:55.502Z,3.97
2019-04-04T16:36:01.694Z,5.10
2019-04-04T16:40:09.719Z,5.07
2019-04-04T16:44:15.065Z,8.40
2019-04-04T16:48:20.586Z,4.40
2019-04-04T16:52:26.416Z,5.80
2019-04-04T16:56:32.581Z,5.33
2019-04-04T17:00:38.619Z,3.30
2019-04-04T17:04:44.511Z,4.30
2019-04-04T17:08:50.679Z,4.80
2019-04-04T17:12:56.912Z,5.13
2019-04-04T17:17:06.768Z,4.83
2019-04-04T17:21:12.533Z,4.63
2019-04-04T17:25:20.370Z,4.53
2019-04-04T17:29:27.758Z,4.87
2019-04-04T17:33:33.500Z,4.90
2019-04-04T17:37:40.147Z,4.80
2019-04-04T17:41:45.637Z,5.50
2019-04-04T17:45:51.663Z,5.87
2019-04-04T17:49:58.216Z,7.33
2019-04-04T17:54:04.887Z,3.77
2019-04-04T17:58:13.798Z,4.60
2019-04-04T18:02:19.722Z,5.57
2019-04-04T18:06:25.023Z,8.87
2019-04-04T18:10:31.029Z,5.37
2019-04-04T18:14:36.735Z,11.47
2019-04-04T18:18:42.433Z,5.63
2019-04-04T18:22:48.089Z,8.10
2019-04-04T18:26:53.913Z,6.70
2019-04-04T18:30:59.142Z,5.80
2019-04-04T18:35:07.097Z,5.93
2019-04-04T18:39:12.699Z,5.87
2019-04-04T18:43:18.210Z,6.17
2019-04-04T18:47:23.142Z,8.73
2019-04-04T18:51:29.993Z,6.27
2019-04-04T18:55:36.765Z,8.83
2019-04-04T18:59:43.447Z,6.90
2019-04-04T19:03:48.814Z,8.10
2019-04-04T19:07:54.283Z,6.53
2019-04-04T19:12:00.388Z,11.23
2019-04-04T19:16:05.459Z,6.10
2019-04-04T19:20:11.963Z,8.70
2019-04-04T19:24:17.570Z,6.30
2019-04-04T19:28:23.457Z,8.67
2019-04-04T19:32:28.821Z,6.40
2019-04-04T19:36:37.667Z,7.43
2019-04-04T19:40:43.809Z,7.83
2019-04-04T19:44:53.558Z,8.73
2019-04-04T19:48:56.813Z,13.50
2019-04-04T19:53:03.730Z,9.70
2019-04-04T19:57:09.680Z,7.13
2019-04-04T20:01:14.969Z,7.97
2019-04-04T20:05:20.461Z,7.33
2019-04-04T20:09:26.587Z,8.27
2019-04-04T20:13:31.925Z,14.17
2019-04-04T20:17:37.485Z,8.10
2019-04-04T20:21:42.488Z,11.43
2019-04-04T20:25:47.566Z,6.90
2019-04-04T20:29:53.142Z,7.20
2019-04-04T20:34:01.814Z,8.20
2019-04-04T20:38:06.379Z,11.10
2019-04-04T20:42:11.451Z,8.27
2019-04-04T20:46:17.613Z,7.40
2019-04-04T20:50:22.682Z,7.20
2019-04-04T20:54:27.555Z,9.20
2019-04-04T20:58:34.960Z,8.83
2019-04-04T21:02:41.009Z,8.57
2019-04-04T21:06:46.570Z,9.93
2019-04-04T21:10:53.625Z,8.23
2019-04-04T21:14:59.091Z,9.57
2019-04-04T21:19:09.447Z,7.07
2019-04-04T21:23:19.728Z,11.13
2019-04-04T21:27:32.058Z,8.60
2019-04-04T21:31:42.350Z,13.50
2019-04-04T21:35:52.527Z,9.23
2019-04-04T21:39:57.868Z,8.63
2019-04-04T21:44:08.765Z,7.27
2019-04-04T21:48:10.555Z,9.23
2019-04-04T21:52:15.474Z,8.27
2019-04-04T21:56:20.454Z,11.53
2019-04-04T22:00:27.278Z,11.10
2019-04-04T22:04:32.149Z,9.43
2019-04-04T22:08:37.144Z,10.03
2019-04-04T22:12:42.027Z,8.70
2019-04-04T22:16:47.125Z,13.27
2019-04-04T22:20:52.100Z,8.40
2019-04-04T22:24:58.159Z,8.77
2019-04-04T22:29:03.742Z,7.80
2019-04-04T22:33:08.764Z,10.67
2019-04-04T22:37:13.640Z,11.30
2019-04-04T22:41:18.641Z,7.67
2019-04-04T22:45:23.495Z,10.07
2019-04-04T22:49:28.541Z,9.73
2019-04-04T22:53:33.420Z,8.23
2019-04-04T22:57:38.814Z,10.90
2019-04-04T23:01:43.702Z,9.03
2019-04-04T23:05:48.738Z,11.03
2019-04-04T23:09:53.601Z,11.60
2019-04-04T23:13:58.970Z,8.33
2019-04-04T23:18:03.918Z,10.27
2019-04-04T23:22:08.915Z,9.53
2019-04-04T23:26:13.778Z,12.10
2019-04-04T23:30:19.066Z,12.50
2019-04-04T23:34:24.074Z,8.80
2019-04-04T23:38:28.916Z,10.87
2019-04-04T23:42:33.844Z,10.20
2019-04-04T23:46:38.705Z,11.27
2019-04-04T23:50:43.654Z,11.20
2019-04-04T23:54:48.542Z,13.17
2019-04-04T23:58:53.657Z,9.80
